Gypsy, Kentucky
Current Conditions -  °F | °C
As of 7:15 PM on Friday 24 Oct 2014 (Local Time) from KSJS Reporting Station
Clear Clear  
Wind Chill: 13°   Ceiling: Unl
Heat Index: 13°   Visibility: 10mi
Dew Point:   Wind: 0mph
Humidity: 61%   Direction: NA
Pressure: 30.06"   Gusts: NA
Location:  37.6421°N, 82.9499°W
Report Text: KSJS 242315Z AUTO 00000KT 10SM CLR 13/06 A3006 RMK AO2 T01320058
Loading
Personal Weather Stations






























Interactive Weather Map
Tropical Storm Tracking
New forecast layout! Learn more

10-Day Weather Forecast

Advertisements
Track Severe Weather on mobile